Terminal Aerodrome Forecast
Issued by NWS Cleveland, OH

Home | Current Version | Previous Version | Graphics & Text | Print | Product List | Glossary On
Versions: 1 2 3 4 5 6 7 8 9 10 11 12 13
000
FTUS41 KCLE 291735
TAFERI
TAF
KERI 291735Z 2918/3018 32010KT P6SM BKN040
     FM300200 25006KT P6SM BKN040 OVC100
     FM301500 26012G18KT P6SM SCT040=

USA.gov is the U.S. government's official web portal to all federal, state and local government web resources and services.